Franklin Grove, IL

7:17 AM CDT on June 22, 2017 (GMT -0500)
Lost Lake Ogle County, Illinois | | Change Station

Elev 761 ft 41.91 °N, 89.35 °W | Updated 9 seconds ago

Partly Cloudy
Partly Cloudy
72.1 °F
Feels Like 70 °F
N
0.0
Wind Variable Wind from WNW
Gusts 0.0 mph

Today
High -- | Low -- °F
--% Chance of Precip.
Yesterday
High -- | Low -- °F
Precip. -- in
Pressure 29.88 in
Visibility 10.0 miles
Clouds Clear
Heat Index 70 °F
Dew Point 68 °F
Humidity 87%
Rainfall 0.00 in
Snow Depth Not available.
5:22 AM 8:35 PM
Waning Crescent, 4% visible
METAR KRPJ 221155Z AUTO 00000KT 10SM CLR 22/20 A2988 RMK AO2 LTG DSNT N T02180195 10227 20210
Pressure 29.88 in
Visibility 10.0 miles
Clouds Clear
Heat Index 70 °F
Dew Point 68 °F
Humidity 87%
Rainfall 0.00 in
Snow Depth Not available.
5:22 AM 8:35 PM
Waning Crescent, 4% visible
METAR KRPJ 221155Z AUTO 00000KT 10SM CLR 22/20 A2988 RMK AO2 LTG DSNT N T02180195 10227 20210

Get Severe Weather Alerts

Thanks for signing up!

Be on the lookout for a verification email in your inbox.

You'll start receiving the daily forecast at 6 AM.

×

10-Day Weather Forecast

Almanac

Astronomy

Jun. 22, 2017 Rise Set
Actual Time
Civil Twilight
Nautical Twilight
Astronomical Twilight
Moon
Length of Visible Light
Length of Day
Tomorrow will be .
, % of the Moon is Illuminated

Today's Extremes

State Highs State Lows

Community

WunderPhotos

Category 6

Welcome to Category 6. This is the collective home for Weather Underground's featured writeups by Dr. Jeff Masters (right), Bob Henson (left), Chris Burt, and other regular contributors.

Nearby

Air Quality

  Air Quality AQ Index Pollutant
Not available.

Snow Depth

Station Depth Elevation

Earthquake Activity

City Distance Mag. Time & Date
Minimum magnitude displayed is 2.5.

Coastal Water Temperatures

Place Temperature

Stations

Nearby Weather Stations

Station Location Temp. Windchill Dew Point Humidity Wind Precip. Elev Updated Type
                   

Watches & Warnings

There are currently no watches in effect.